createdAt,value
2023-03-22T00:01:22.686Z,10.54
2023-03-22T00:06:26.917Z,10.45
2023-03-22T00:11:30.569Z,10.38
2023-03-22T00:16:34.205Z,10.32
2023-03-22T00:21:37.830Z,10.28
2023-03-22T00:26:41.557Z,10.23
2023-03-22T00:31:45.227Z,10.21
2023-03-22T00:36:48.855Z,10.20
2023-03-22T00:41:52.194Z,10.20
2023-03-22T00:46:55.650Z,10.18
2023-03-22T00:51:59.204Z,10.13
2023-03-22T00:57:07.957Z,10.01
2023-03-22T01:02:15.177Z,9.96
2023-03-22T01:07:21.913Z,9.83
2023-03-22T01:12:25.519Z,9.75
2023-03-22T01:17:28.765Z,9.78
2023-03-22T01:22:32.205Z,9.80
2023-03-22T01:27:36.309Z,9.79
2023-03-22T01:32:40.236Z,9.85
2023-03-22T01:37:44.024Z,9.83
2023-03-22T01:42:48.080Z,9.77
2023-03-22T01:47:59.879Z,9.69
2023-03-22T01:53:05.335Z,9.66
2023-03-22T01:58:10.810Z,9.67
2023-03-22T02:03:56.033Z,9.65
2023-03-22T02:08:59.867Z,9.64
2023-03-22T02:14:29.525Z,9.58
2023-03-22T02:20:25.642Z,9.55
2023-03-22T02:25:32.912Z,9.49
2023-03-22T02:30:48.422Z,9.42
2023-03-22T02:36:12.937Z,9.33
2023-03-22T02:42:03.224Z,9.25
2023-03-22T02:47:17.338Z,9.15
2023-03-22T02:52:29.865Z,9.13
2023-03-22T02:57:45.649Z,9.12
2023-03-22T03:02:57.842Z,9.05
2023-03-22T03:08:02.916Z,8.95
2023-03-22T03:13:06.764Z,8.86
2023-03-22T03:18:26.744Z,8.75
2023-03-22T03:23:49.869Z,8.64
2023-03-22T03:28:58.396Z,8.49
2023-03-22T03:34:23.556Z,8.38
2023-03-22T03:39:30.750Z,8.32
2023-03-22T03:44:36.804Z,8.29
2023-03-22T03:49:41.018Z,8.32
2023-03-22T03:54:45.878Z,8.34
2023-03-22T03:59:52.237Z,8.37
2023-03-22T04:05:07.687Z,8.37
2023-03-22T04:10:11.016Z,8.36
2023-03-22T04:15:14.354Z,8.33
2023-03-22T04:20:19.862Z,8.31
2023-03-22T04:25:23.601Z,8.35
2023-03-22T04:30:45.921Z,8.38
2023-03-22T04:36:11.475Z,8.37
2023-03-22T04:41:26.542Z,8.38
2023-03-22T04:46:34.973Z,8.39
2023-03-22T04:51:40.008Z,8.37
2023-03-22T04:56:58.609Z,8.35
2023-03-22T05:02:04.186Z,8.28
2023-03-22T05:07:14.234Z,8.31
2023-03-22T05:12:27.877Z,8.30
2023-03-22T05:17:38.642Z,8.27
2023-03-22T05:22:42.124Z,8.23
2023-03-22T05:27:47.078Z,8.21
2023-03-22T05:33:11.090Z,8.17
2023-03-22T05:38:19.381Z,8.16
2023-03-22T05:43:26.775Z,8.15
2023-03-22T05:48:30.783Z,8.20
2023-03-22T05:53:35.072Z,8.31
2023-03-22T05:59:02.971Z,8.52
2023-03-22T06:04:07.018Z,8.66
2023-03-22T06:09:20.449Z,8.72
2023-03-22T06:14:26.637Z,8.78
2023-03-22T06:19:54.613Z,8.82
2023-03-22T06:24:58.058Z,8.89
2023-03-22T06:30:09.222Z,8.99
2023-03-22T06:35:23.602Z,9.09
2023-03-22T06:40:28.313Z,9.20
2023-03-22T06:45:33.698Z,9.36
2023-03-22T06:50:40.368Z,9.43
2023-03-22T06:55:55.649Z,9.44
2023-03-22T07:01:00.887Z,9.50
2023-03-22T07:06:07.193Z,9.56
2023-03-22T07:11:12.585Z,9.64
2023-03-22T07:16:19.856Z,9.74
2023-03-22T07:21:36.375Z,9.85
2023-03-22T07:26:42.424Z,9.86
2023-03-22T07:31:46.905Z,9.89
2023-03-22T07:37:00.179Z,9.95
2023-03-22T07:42:04.384Z,10.05
2023-03-22T07:47:39.881Z,10.13
2023-03-22T07:53:12.033Z,10.30
2023-03-22T07:58:15.389Z,10.42
2023-03-22T08:03:19.388Z,10.63
2023-03-22T08:08:37.229Z,10.85
2023-03-22T08:13:41.343Z,11.02
2023-03-22T08:18:46.055Z,11.17
2023-03-22T08:23:50.017Z,11.26
2023-03-22T08:29:31.607Z,11.31
2023-03-22T08:34:40.157Z,11.47
2023-03-22T08:39:44.225Z,11.74
2023-03-22T08:45:01.905Z,11.92
2023-03-22T08:50:07.258Z,12.08
2023-03-22T08:55:17.880Z,12.26
2023-03-22T09:00:48.660Z,12.35
2023-03-22T09:06:02.314Z,12.44
2023-03-22T09:11:12.580Z,12.57
2023-03-22T09:16:17.155Z,12.78
2023-03-22T09:21:22.234Z,12.92
2023-03-22T09:26:37.302Z,13.00
2023-03-22T09:31:42.184Z,13.03
2023-03-22T09:36:53.066Z,13.07
2023-03-22T09:42:03.513Z,13.08
2023-03-22T09:47:14.009Z,13.07
2023-03-22T09:52:18.246Z,13.08
2023-03-22T09:57:37.745Z,13.23
2023-03-22T10:03:05.697Z,13.42
2023-03-22T10:08:22.526Z,13.64
2023-03-22T10:14:00.465Z,13.83
2023-03-22T10:19:45.255Z,14.10
2023-03-22T10:24:51.406Z,14.28
2023-03-22T10:30:10.721Z,14.41
2023-03-22T10:35:15.741Z,14.51
2023-03-22T10:40:25.092Z,14.58
2023-03-22T10:45:28.855Z,14.68
2023-03-22T10:50:36.877Z,14.83
2023-03-22T10:55:42.032Z,14.95
2023-03-22T11:00:48.676Z,15.13
2023-03-22T11:06:19.704Z,15.25
2023-03-22T11:11:25.064Z,15.35
2023-03-22T11:16:31.230Z,15.62
2023-03-22T11:21:35.253Z,15.80
2023-03-22T11:26:41.334Z,15.93
2023-03-22T11:31:55.632Z,16.16
2023-03-22T11:37:02.418Z,16.40
2023-03-22T11:42:06.937Z,16.51
2023-03-22T11:47:14.152Z,16.64
2023-03-22T11:52:27.928Z,16.71
2023-03-22T11:57:34.923Z,16.85
2023-03-22T12:02:48.872Z,16.96
2023-03-22T12:08:02.567Z,17.01
2023-03-22T12:13:15.959Z,17.20
2023-03-22T12:18:28.306Z,17.44
2023-03-22T12:23:35.517Z,17.61
2023-03-22T12:28:49.824Z,17.76
2023-03-22T12:33:56.672Z,17.92
2023-03-22T12:39:02.732Z,18.08
2023-03-22T12:44:18.816Z,18.33
2023-03-22T12:49:32.634Z,18.39
2023-03-22T12:54:38.040Z,18.66
2023-03-22T12:59:45.584Z,19.02
2023-03-22T13:05:05.343Z,19.35
2023-03-22T13:10:31.381Z,19.34
2023-03-22T13:15:42.308Z,19.25
2023-03-22T13:21:11.795Z,19.24
2023-03-22T13:26:16.482Z,19.17
2023-03-22T13:31:37.994Z,19.51
2023-03-22T13:36:50.395Z,20.02
2023-03-22T13:42:09.017Z,20.32
2023-03-22T13:47:46.708Z,20.56
2023-03-22T13:53:22.497Z,20.96
2023-03-22T13:58:36.681Z,21.04
2023-03-22T14:03:43.061Z,20.87
2023-03-22T14:08:50.065Z,20.58
2023-03-22T14:14:16.096Z,20.19
2023-03-22T14:19:23.743Z,19.76
